Jyväskylä

Airport
ICAO code: 
EFJY
Summary
ICAO Region: 
EUR
Territory: 
Location: 
Jyväskylä,
Coordinates: 
Aerial View: 
62° 24' 3.701" N, 25° 40' 28.94" E
Airport GND: 
Aircraft Ground De/Anti Icing
Airport RE: 
Landing on Contaminated Runways
Metar
Observation
EFJY 271750Z AUTO 05005KT 9999 -SHSN OVC006 M09/M10 Q1008
Station
Jyvaskyla
Date/Time
2021-11-27 17:50:00
Wind direction
50°
Wind speed
05 kts
Lowest cloud amount
overcast
Temperature
-9°C
Dew point
-10°C
Humidity
92%
QNH
1008 hPa
Weather condition
light showers snow

Description

Largely domestic but also international airport serving the city of Jyvaskyla in central Finland. The airport is located 12 nm north of the city centre. Military flight training takes place here.

Climatology

Subarctic climate (Köppen climate classification Dfc) - long, usually very cold winters, and short, cool to mild summers.

Runways

Designator Length Width Surface Rops
12/30 2601 60 ASP Yes/Yes
Airport map: 
Aerial View: 

SKYbrary Partners:

Safety knowledge contributed by: